| time (UTC) | temp F | wind direction | speed MPH | gust MPH | rain 1hr in | rain 24hr in | rain mn in | humidity % | barometer mb |
| 20260504044522 | 56 | 284 | 0.0 | 0.0 | 0.00 | 0.00 | 0.00 | 46 | 1006.1 |
| 20260504043003 | 57 | 284 | 0.0 | 1.0 | 0.00 | 0.00 | 0.00 | 44 | 1006.2 |
| 20260504041533 | 57 | 284 | 1.0 | 4.0 | 0.00 | 0.00 | 0.00 | 44 | 1006.4 |
| 20260504040015 | 57 | 284 | 0.0 | 0.0 | 0.00 | 0.00 | 0.00 | 43 | 1006.5 |
| 20260504034519 | 59 | 284 | 0.0 | 0.0 | 0.00 | 0.00 | 0.00 | 42 | 1006.7 |
| 20260504033022 | 60 | 284 | 0.0 | 0.0 | 0.00 | 0.00 | 0.00 | 39 | 1006.9 |
| 20260504031508 | 60 | 284 | 0.0 | 0.0 | 0.00 | 0.00 | 0.00 | 40 | 1007.1 |
| 20260504030012 | 60 | 284 | 0.0 | 0.0 | 0.00 | 0.00 | 0.00 | 40 | 1007.2 |
| 20260504024520 | 60 | 284 | 0.0 | 0.0 | 0.00 | 0.00 | 0.00 | 40 | 1007.3 |
| 20260504023019 | 61 | 284 | 0.0 | 0.0 | 0.00 | 0.00 | 0.00 | 38 | 1007.1 |
| 20260504021524 | 62 | 284 | 0.0 | 0.0 | 0.00 | 0.00 | 0.00 | 37 | 1007.1 |
| 20260504020028 | 62 | 284 | 0.0 | 1.0 | 0.00 | 0.00 | 0.00 | 36 | 1006.9 |
| 20260504014528 | 63 | 284 | 0.0 | 0.0 | 0.00 | 0.00 | 0.00 | 36 | 1006.8 |
| 20260504013020 | 64 | 284 | 0.0 | 2.0 | 0.00 | 0.00 | 0.00 | 35 | 1006.7 |
| 20260504011522 | 66 | 284 | 1.0 | 6.0 | 0.00 | 0.00 | 0.00 | 32 | 1006.5 |
| 20260504010023 | 68 | 284 | 1.0 | 8.0 | 0.00 | 0.00 | 0.00 | 30 | 1006.4 |
| 20260504004525 | 70 | 280 | 4.0 | 10.0 | 0.00 | 0.00 | 0.00 | 28 | 1006.4 |
| 20260504003016 | 71 | 314 | 9.0 | 12.0 | 0.00 | 0.00 | 0.00 | 27 | 1006.4 |
| 20260504001520 | 71 | 286 | 6.0 | 16.0 | 0.00 | 0.00 | 0.00 | 28 | 1006.4 |
| 20260504000021 | 72 | 284 | 6.0 | 12.0 | 0.00 | 0.00 | 0.00 | 28 | 1006.3 |
| 20260503234532 | 72 | 281 | 8.0 | 12.0 | 0.00 | 0.00 | 0.00 | 25 | 1006.2 |
| 20260503233035 | 72 | 279 | 8.0 | 15.0 | 0.00 | 0.00 | 0.00 | 28 | 1006.2 |
| 20260503231516 | 73 | 298 | 6.0 | 13.0 | 0.00 | 0.00 | 0.00 | 26 | 1006.2 |
| 20260503230023 | 73 | 296 | 9.0 | 17.0 | 0.00 | 0.00 | 0.00 | 26 | 1006.2 |
| 20260503224524 | 73 | 291 | 8.0 | 12.0 | 0.00 | 0.00 | 0.00 | 25 | 1006.2 |
| 20260503223028 | 73 | 284 | 9.0 | 16.0 | 0.00 | 0.00 | 0.00 | 24 | 1006.2 |
| 20260503221534 | 74 | 304 | 9.0 | 15.0 | 0.00 | 0.00 | 0.00 | 23 | 1006.0 |
| 20260503220020 | 74 | 289 | 10.0 | 18.0 | 0.00 | 0.00 | 0.00 | 23 | 1006.0 |
| 20260503214526 | 74 | 325 | 8.0 | 13.0 | 0.00 | 0.00 | 0.00 | 23 | 1005.9 |
| 20260503213026 | 74 | 311 | 8.0 | 15.0 | 0.00 | 0.00 | 0.00 | 24 | 1005.9 |
| 20260503211513 | 73 | 318 | 7.0 | 18.0 | 0.00 | 0.00 | 0.00 | 27 | 1006.1 |
| 20260503210020 | 73 | 329 | 10.0 | 18.0 | 0.00 | 0.00 | 0.00 | 27 | 1006.2 |
| 20260503204524 | 73 | 322 | 9.0 | 17.0 | 0.00 | 0.00 | 0.00 | 28 | 1006.3 |
| 20260503203031 | 73 | 326 | 9.0 | 18.0 | 0.00 | 0.00 | 0.00 | 26 | 1006.4 |
| 20260503201527 | 73 | 308 | 10.0 | 17.0 | 0.00 | 0.00 | 0.00 | 28 | 1006.6 |
| 20260503200016 | 73 | 289 | 9.0 | 15.0 | 0.00 | 0.00 | 0.00 | 33 | 1006.6 |
| 20260503194524 | 72 | 289 | 11.0 | 18.0 | 0.00 | 0.00 | 0.00 | 29 | 1006.6 |
| 20260503193026 | 72 | 342 | 10.0 | 19.0 | 0.00 | 0.00 | 0.00 | 31 | 1006.6 |
| 20260503191530 | 72 | 340 | 11.0 | 19.0 | 0.00 | 0.00 | 0.00 | 33 | 1006.6 |
| 20260503190017 | 72 | 277 | 10.0 | 17.0 | 0.00 | 0.00 | 0.00 | 33 | 1006.6 |
| 20260503184517 | 72 | 336 | 11.0 | 17.0 | 0.00 | 0.00 | 0.00 | 33 | 1006.6 |
| 20260503183004 | 72 | 300 | 11.0 | 21.0 | 0.00 | 0.00 | 0.00 | 32 | 1006.7 |
| 20260503181506 | 71 | 319 | 11.0 | 18.0 | 0.00 | 0.00 | 0.00 | 34 | 1006.6 |
| 20260503180011 | 70 | 307 | 9.0 | 15.0 | 0.00 | 0.00 | 0.00 | 36 | 1006.7 |
| 20260503174515 | 70 | 299 | 9.0 | 15.0 | 0.00 | 0.00 | 0.00 | 37 | 1006.8 |
| 20260503173027 | 69 | 300 | 10.0 | 15.0 | 0.00 | 0.00 | 0.00 | 38 | 1007.0 |
| 20260503171522 | 69 | 276 | 7.0 | 16.0 | 0.00 | 0.00 | 0.00 | 40 | 1007.0 |
| 20260503081509 | 54 | 209 | 1.0 | 8.0 | 0.00 | 0.00 | 0.00 | 46 | 1012.8 |
| 20260503071513 | 54 | 208 | 3.0 | 12.0 | 0.00 | 0.00 | 0.00 | 45 | 1012.7 |
| 20260503054511 | 52 | 223 | 4.0 | 8.0 | 0.00 | 0.00 | 0.00 | 49 | 1012.9 |
| 20260503053009 | 52 | 211 | 4.0 | 12.0 | 0.00 | 0.00 | 0.00 | 48 | 1013.0 |